Time;durP1;ratioP1;P1;durP2;ratioP2;P2;SDS_P1;SDS_P2;PMS_P1;PMS_P2;Temp;Humidity;BMP_temperature;BMP_pressure;BME280_temperature;BME280_humidity;BME280_pressure;Samples;Min_cycle;Max_cycle;Signal;HPM_P1;HPM_P2
2022/08/18 00:00:32;;;;;;;7.43;6.83;;;25.50;57.20;;;;;;5012999;28;20401;-72
2022/08/18 00:03:06;;;;;;;7.40;6.70;;;25.40;57.10;;;;;;5013181;28;20389;-73
2022/08/18 00:05:32;;;;;;;7.35;6.75;;;25.40;57.10;;;;;;5012940;28;20425;-72
2022/08/18 00:07:59;;;;;;;8.02;7.25;;;25.40;57.20;;;;;;4995836;28;20425;-72
2022/08/18 00:10:25;;;;;;;7.20;6.60;;;25.40;57.10;;;;;;5012941;28;20491;-72
2022/08/18 00:12:51;;;;;;;7.55;6.95;;;25.40;57.10;;;;;;5012867;28;20392;-73
2022/08/18 00:15:18;;;;;;;7.40;6.80;;;25.40;57.20;;;;;;4995788;28;20408;-73
2022/08/18 00:17:44;;;;;;;7.63;7.03;;;25.40;57.20;;;;;;5013044;28;20401;-72
2022/08/18 00:20:15;;;;;;;7.20;6.60;;;25.40;57.10;;;;;;5013329;28;20734;-73
2022/08/18 00:22:41;;;;;;;7.93;7.32;;;25.40;57.10;;;;;;5013137;28;20992;-72
2022/08/18 00:25:09;;;;;;;7.22;6.53;;;25.40;57.20;;;;;;5012929;28;20515;-72
2022/08/18 00:27:36;;;;;;;7.18;6.60;;;25.40;57.10;;;;;;4995186;28;20761;-71
2022/08/18 00:30:06;;;;;;;6.93;6.40;;;25.40;57.10;;;;;;4995003;28;20415;-72
2022/08/18 00:32:37;;;;;;;6.97;6.37;;;25.40;57.10;;;;;;5012080;28;20463;-72
2022/08/18 00:35:12;;;;;;;7.60;7.00;;;25.40;57.10;;;;;;5012437;28;20393;-72
2022/08/18 00:37:39;;;;;;;7.97;7.28;;;25.40;57.20;;;;;;4994620;28;20509;-73
2022/08/18 00:40:07;;;;;;;7.57;6.97;;;25.40;57.10;;;;;;4995159;28;21101;-71
2022/08/18 00:42:37;;;;;;;7.60;7.00;;;25.40;57.10;;;;;;5012563;28;20393;-73
2022/08/18 00:45:04;;;;;;;6.97;6.38;;;25.30;57.10;;;;;;5012531;28;20873;-72
2022/08/18 00:47:31;;;;;;;7.43;6.82;;;25.40;57.10;;;;;;5012751;28;20765;-72
2022/08/18 00:49:57;;;;;;;7.25;6.65;;;25.30;57.10;;;;;;5012719;28;20385;-73
2022/08/18 00:52:24;;;;;;;6.90;6.32;;;25.40;57.10;;;;;;5012648;28;20393;-72
2022/08/18 00:54:52;;;;;;;7.20;6.55;;;25.30;57.00;;;;;;5012598;28;20443;-73
2022/08/18 00:57:20;;;;;;;7.38;6.78;;;25.30;57.00;;;;;;5012118;28;20400;-72
2022/08/18 00:59:55;;;;;;;7.43;6.82;;;25.30;57.00;;;;;;5012270;28;20389;-71
2022/08/18 01:02:31;;;;;;;7.10;6.60;;;25.30;57.00;;;;;;5009373;28;20440;-72
2022/08/18 01:05:04;;;;;;;7.20;6.55;;;25.30;57.00;;;;;;5003607;28;20430;-72
2022/08/18 01:07:36;;;;;;;7.35;6.68;;;25.30;57.10;;;;;;5005993;28;20752;-72
2022/08/18 01:10:04;;;;;;;6.63;6.03;;;25.30;57.00;;;;;;5010564;28;20405;-73
2022/08/18 01:12:30;;;;;;;7.15;6.55;;;25.30;57.00;;;;;;5005650;28;20400;-72
2022/08/18 01:14:56;;;;;;;7.15;6.55;;;25.30;57.00;;;;;;5006046;28;20410;-72
2022/08/18 01:23:15;;;;;;;7.10;6.50;;;25.30;57.00;;;;;;5021981;28;20390;-72
2022/08/18 01:25:59;;;;;;;6.97;6.37;;;25.30;57.00;;;;;;5000011;28;20431;-72
2022/08/18 01:28:40;;;;;;;7.07;6.47;;;25.30;57.00;;;;;;4975286;28;20775;-72
2022/08/18 01:31:08;;;;;;;6.90;6.40;;;25.30;57.00;;;;;;4992791;28;20397;-72
2022/08/18 01:33:40;;;;;;;7.03;6.43;;;25.30;57.00;;;;;;4992455;28;20443;-72
2022/08/18 01:36:19;;;;;;;9.02;6.85;;;25.30;57.00;;;;;;4975223;28;20398;-72
2022/08/18 01:38:49;;;;;;;9.10;6.93;;;25.30;57.00;;;;;;4992270;28;20485;-72
2022/08/18 01:41:17;;;;;;;18.10;8.23;;;25.30;57.50;;;;;;4992628;28;20481;-72
2022/08/18 01:43:45;;;;;;;20.63;8.38;;;25.40;57.80;;;;;;4992222;28;20881;-73
2022/08/18 01:46:11;;;;;;;13.65;7.10;;;25.40;57.50;;;;;;4974843;28;20478;-72
2022/08/18 01:48:37;;;;;;;13.63;6.70;;;25.40;57.10;;;;;;4995836;28;20387;-72
2022/08/18 01:51:07;;;;;;;18.83;7.00;;;25.40;56.90;;;;;;4996202;28;20465;-72
2022/08/18 01:53:34;;;;;;;13.80;7.30;;;25.40;57.00;;;;;;4996374;28;20391;-73
2022/08/18 01:56:00;;;;;;;14.38;7.80;;;25.30;56.90;;;;;;4996440;28;20424;-73
2022/08/18 01:58:29;;;;;;;20.83;8.23;;;25.30;56.80;;;;;;4996354;28;20397;-72
2022/08/18 02:00:56;;;;;;;11.13;8.00;;;25.30;56.80;;;;;;4996156;28;20914;-72
2022/08/18 02:03:27;;;;;;;12.45;7.70;;;25.30;56.80;;;;;;4978695;28;20425;-72
2022/08/18 02:05:57;;;;;;;11.38;8.00;;;25.30;56.80;;;;;;4994544;28;20790;-73
2022/08/18 02:08:22;;;;;;;9.15;7.40;;;25.30;56.90;;;;;;4978429;28;20407;-72
2022/08/18 02:10:48;;;;;;;9.63;7.43;;;25.30;56.80;;;;;;4994276;28;20473;-73
2022/08/18 02:13:14;;;;;;;10.03;7.40;;;25.30;57.40;;;;;;4995927;28;20390;-73
2022/08/18 02:15:41;;;;;;;12.13;7.35;;;25.30;56.80;;;;;;4995885;28;20425;-72
2022/08/18 02:18:23;;;;;;;8.68;7.43;;;25.30;56.80;;;;;;4995901;28;20394;-72
2022/08/18 02:20:49;;;;;;;9.98;7.13;;;25.30;56.80;;;;;;4978302;28;20903;-73
2022/08/18 02:23:14;;;;;;;8.57;7.68;;;25.30;56.80;;;;;;4978292;28;20430;-73
2022/08/18 02:25:43;;;;;;;10.47;7.03;;;25.30;56.80;;;;;;4994351;28;20505;-73
2022/08/18 02:28:09;;;;;;;8.43;7.47;;;25.30;56.80;;;;;;4995782;28;20398;-72
2022/08/18 02:30:38;;;;;;;7.82;7.03;;;25.30;56.90;;;;;;4995543;28;20768;-72
2022/08/18 02:33:05;;;;;;;8.35;6.80;;;25.30;56.90;;;;;;4995720;28;20391;-73
2022/08/18 02:35:31;;;;;;;8.32;7.40;;;25.30;57.50;;;;;;4995630;28;20468;-72
2022/08/18 02:38:01;;;;;;;8.07;7.33;;;25.30;56.90;;;;;;4995386;28;20873;-72
2022/08/18 02:40:27;;;;;;;9.50;7.65;;;25.20;56.80;;;;;;4995609;28;20864;-72
2022/08/18 02:42:53;;;;;;;8.13;7.32;;;25.30;56.90;;;;;;4995436;28;20426;-73
2022/08/18 02:45:19;;;;;;;9.18;6.85;;;25.20;56.90;;;;;;4995520;28;20430;-73
2022/08/18 02:47:50;;;;;;;7.60;6.83;;;25.20;56.90;;;;;;4994163;28;20862;-72
2022/08/18 02:50:15;;;;;;;7.88;7.07;;;25.20;56.90;;;;;;4995507;28;20428;-73
2022/08/18 02:52:41;;;;;;;10.00;7.20;;;25.30;56.90;;;;;;4995355;28;20398;-72
2022/08/18 02:55:07;;;;;;;7.70;7.00;;;25.30;57.00;;;;;;4995276;28;20391;-73
2022/08/18 02:57:33;;;;;;;8.25;7.35;;;25.30;56.90;;;;;;4995112;28;20390;-72
2022/08/18 02:59:59;;;;;;;7.90;7.10;;;25.20;56.90;;;;;;4994011;28;20503;-73
2022/08/18 03:02:25;;;;;;;7.57;6.78;;;25.20;56.90;;;;;;4995198;28;20401;-73
2022/08/18 03:04:50;;;;;;;8.07;7.30;;;25.20;56.90;;;;;;4994991;28;20414;-73
2022/08/18 03:07:16;;;;;;;7.65;6.75;;;25.20;56.90;;;;;;4994983;28;20878;-73
2022/08/18 03:09:42;;;;;;;8.25;7.43;;;25.20;56.90;;;;;;4994992;28;20863;-72
2022/08/18 03:12:08;;;;;;;9.98;7.10;;;25.20;57.10;;;;;;4994863;28;20464;-73
2022/08/18 03:14:36;;;;;;;7.53;6.82;;;25.20;57.10;;;;;;4994776;28;20398;-73
2022/08/18 03:17:07;;;;;;;8.20;7.40;;;25.20;57.10;;;;;;4994868;28;20434;-73
2022/08/18 03:19:33;;;;;;;9.55;8.57;;;25.20;57.50;;;;;;4994784;28;20391;-73
2022/08/18 03:21:59;;;;;;;11.45;8.65;;;25.20;59.80;;;;;;4995188;28;20399;-73
2022/08/18 03:24:27;;;;;;;13.70;9.10;;;25.30;59.00;;;;;;4994342;28;20475;-73
2022/08/18 03:26:55;;;;;;;12.05;7.93;;;25.30;59.20;;;;;;4993545;28;20469;-72
2022/08/18 03:29:22;;;;;;;10.35;9.25;;;25.40;59.10;;;;;;4994262;28;20871;-72
2022/08/18 03:31:48;;;;;;;12.70;8.50;;;25.40;59.20;;;;;;4976816;28;20399;-73
2022/08/18 03:34:18;;;;;;;9.32;8.32;;;25.40;59.20;;;;;;4994225;28;20402;-73
2022/08/18 03:36:44;;;;;;;13.45;8.30;;;25.50;59.30;;;;;;4976613;28;20919;-73
2022/08/18 03:39:12;;;;;;;9.95;8.55;;;25.50;59.40;;;;;;4994074;28;20919;-72
2022/08/18 03:41:42;;;;;;;11.82;8.40;;;25.50;59.40;;;;;;4993807;28;20403;-70
2022/08/18 03:44:08;;;;;;;10.15;8.30;;;25.50;59.40;;;;;;4976847;28;20875;-72
2022/08/18 03:46:34;;;;;;;15.20;8.60;;;25.50;59.30;;;;;;4996772;28;20401;-72
2022/08/18 03:49:00;;;;;;;14.43;8.88;;;25.50;59.40;;;;;;4997157;28;20401;-72
2022/08/18 03:51:30;;;;;;;13.27;8.43;;;25.50;59.20;;;;;;4994148;28;20398;-72
2022/08/18 03:53:59;;;;;;;12.63;8.40;;;25.50;58.90;;;;;;4993987;28;20461;-73
2022/08/18 03:56:27;;;;;;;13.13;8.93;;;25.50;59.30;;;;;;4992802;28;20406;-73
2022/08/18 03:58:55;;;;;;;8.82;8.02;;;25.50;59.10;;;;;;4976401;28;20473;-73
2022/08/18 04:01:27;;;;;;;10.40;8.02;;;25.50;59.00;;;;;;4976596;28;20402;-72
2022/08/18 04:04:00;;;;;;;11.75;8.02;;;25.50;58.30;;;;;;4994018;28;20401;-73
2022/08/18 04:06:32;;;;;;;11.52;8.77;;;25.50;58.50;;;;;;4993191;28;20814;-73
2022/08/18 04:09:03;;;;;;;12.47;9.00;;;25.40;58.20;;;;;;4994288;28;20391;-73
2022/08/18 04:11:34;;;;;;;12.75;8.10;;;25.40;58.20;;;;;;4993554;28;20427;-72
2022/08/18 04:14:00;;;;;;;18.38;9.40;;;25.40;58.30;;;;;;4993832;28;20449;-73
2022/08/18 04:16:27;;;;;;;15.85;8.48;;;25.40;57.80;;;;;;4992548;28;20410;-73
2022/08/18 04:18:54;;;;;;;14.70;8.82;;;25.40;57.80;;;;;;4993715;28;20393;-74
2022/08/18 04:21:22;;;;;;;13.85;8.93;;;25.30;57.60;;;;;;4993661;28;20942;-74
2022/08/18 04:23:48;;;;;;;11.20;10.05;;;25.30;57.50;;;;;;4993606;28;20407;-74
2022/08/18 04:26:13;;;;;;;11.37;9.67;;;25.30;57.40;;;;;;4976113;28;20968;-74
2022/08/18 04:28:41;;;;;;;11.25;9.00;;;25.30;57.50;;;;;;4992206;28;20387;-73
2022/08/18 04:31:12;;;;;;;9.68;8.70;;;25.30;57.50;;;;;;4993534;28;20448;-74
2022/08/18 04:33:39;;;;;;;11.52;8.68;;;25.30;57.50;;;;;;4993399;28;20394;-73
2022/08/18 04:36:14;;;;;;;10.10;8.90;;;25.30;57.50;;;;;;4975981;28;20462;-74
2022/08/18 04:38:43;;;;;;;9.02;8.13;;;25.30;57.40;;;;;;4993214;28;20410;-73
2022/08/18 04:41:12;;;;;;;9.18;8.25;;;25.30;57.50;;;;;;4993375;28;20864;-73
2022/08/18 04:43:39;;;;;;;10.02;8.52;;;25.30;57.40;;;;;;4993195;28;20855;-73
2022/08/18 04:46:05;;;;;;;9.38;7.80;;;25.30;57.40;;;;;;4993204;28;20423;-75
2022/08/18 04:48:36;;;;;;;8.40;7.55;;;25.30;57.40;;;;;;4993143;28;20402;-74
2022/08/18 04:51:14;;;;;;;10.07;8.52;;;25.30;57.40;;;;;;4975701;28;20398;-73
2022/08/18 04:53:45;;;;;;;9.05;8.35;;;25.30;57.40;;;;;;4992804;28;20394;-73
2022/08/18 04:56:24;;;;;;;8.60;7.80;;;25.30;57.40;;;;;;4993055;28;20390;-74
2022/08/18 04:58:52;;;;;;;9.18;8.27;;;25.30;57.40;;;;;;4992996;28;20430;-74
2022/08/18 05:01:21;;;;;;;9.77;8.25;;;25.30;57.40;;;;;;4975508;28;20465;-73
2022/08/18 05:03:48;;;;;;;8.90;7.87;;;25.30;57.40;;;;;;4992673;28;20461;-74
2022/08/18 05:06:14;;;;;;;9.07;8.18;;;25.30;57.40;;;;;;4975449;28;20410;-74
2022/08/18 05:08:39;;;;;;;9.23;8.35;;;25.30;57.40;;;;;;4975152;28;20387;-74
2022/08/18 05:11:05;;;;;;;9.47;8.23;;;25.30;57.40;;;;;;4992940;28;20410;-74
2022/08/18 05:13:31;;;;;;;9.73;8.88;;;25.30;57.40;;;;;;4991633;28;20399;-73
2022/08/18 05:16:02;;;;;;;8.60;7.80;;;25.30;57.60;;;;;;4992806;28;20398;-74
2022/08/18 05:18:29;;;;;;;8.75;7.95;;;25.20;57.40;;;;;;4992739;28;20426;-72
2022/08/18 05:20:55;;;;;;;8.77;8.07;;;25.30;57.50;;;;;;4992423;28;20402;-73
2022/08/18 05:23:22;;;;;;;8.50;7.70;;;25.30;57.50;;;;;;4992244;28;20413;-74
2022/08/18 05:25:48;;;;;;;9.02;8.13;;;25.30;57.50;;;;;;4975106;28;21073;-74
2022/08/18 05:28:15;;;;;;;8.27;7.50;;;25.30;57.50;;;;;;4975153;28;20433;-74
2022/08/18 05:30:41;;;;;;;9.07;8.38;;;25.30;57.50;;;;;;4975064;28;20402;-74
2022/08/18 05:33:10;;;;;;;9.23;8.40;;;25.20;57.50;;;;;;4975161;28;20422;-73
2022/08/18 05:35:41;;;;;;;9.25;8.38;;;25.20;57.40;;;;;;4992422;28;20402;-73
2022/08/18 05:38:30;;;;;;;8.70;8.00;;;25.30;57.60;;;;;;4971684;28;20459;-74
2022/08/18 05:41:09;;;;;;;8.55;7.75;;;25.30;57.60;;;;;;4973090;28;20522;-73
2022/08/18 05:43:36;;;;;;;8.88;8.10;;;25.20;57.50;;;;;;4971688;28;20404;-74
2022/08/18 05:46:05;;;;;;;8.60;7.80;;;25.20;57.50;;;;;;4973122;28;20516;-74
2022/08/18 05:48:34;;;;;;;8.23;7.53;;;25.30;57.60;;;;;;4971139;28;20424;-73
2022/08/18 05:51:05;;;;;;;8.00;7.30;;;25.20;57.50;;;;;;4972993;28;20396;-74
2022/08/18 05:59:07;;;;;;;8.35;7.57;;;25.30;57.60;;;;;;4973205;28;20528;-73
2022/08/18 06:01:40;;;;;;;7.78;7.18;;;25.20;57.60;;;;;;4972862;28;20435;-73
2022/08/18 06:04:13;;;;;;;7.88;7.18;;;25.20;57.60;;;;;;4972918;28;20407;-74
2022/08/18 06:06:41;;;;;;;7.70;7.00;;;25.20;57.60;;;;;;4972771;28;20935;-74
2022/08/18 06:09:24;;;;;;;7.57;6.97;;;25.20;57.60;;;;;;4972882;28;20877;-74
2022/08/18 06:11:51;;;;;;;7.60;6.90;;;25.20;57.60;;;;;;4971540;28;20512;-73
2022/08/18 06:14:18;;;;;;;7.45;6.82;;;25.20;57.70;;;;;;4972844;28;20399;-74
2022/08/18 06:17:08;;;;;;;7.60;6.90;;;25.20;57.70;;;;;;4972799;28;20416;-74
2022/08/18 06:19:44;;;;;;;7.77;7.07;;;25.20;57.70;;;;;;4972791;28;20492;-74
2022/08/18 06:22:16;;;;;;;7.90;7.20;;;25.20;57.70;;;;;;4972804;28;20398;-74
2022/08/18 06:25:04;;;;;;;7.85;7.22;;;25.20;57.70;;;;;;4972668;28;20502;-73
2022/08/18 06:27:38;;;;;;;7.43;6.83;;;25.20;57.70;;;;;;4972684;28;20401;-74
2022/08/18 06:30:16;;;;;;;7.20;6.60;;;25.20;57.70;;;;;;4972827;28;20380;-74
2022/08/18 06:33:02;;;;;;;7.53;6.93;;;25.20;57.70;;;;;;4971793;28;20889;-74
2022/08/18 06:35:44;;;;;;;7.90;7.20;;;25.20;57.70;;;;;;4965267;28;20400;-74
2022/08/18 06:38:38;;;;;;;7.75;7.05;;;25.20;57.80;;;;;;4974787;28;20424;-74
2022/08/18 06:41:09;;;;;;;7.70;7.00;;;25.20;57.80;;;;;;4991173;28;20450;-74
2022/08/18 06:43:39;;;;;;;7.80;7.15;;;25.20;57.80;;;;;;4976028;28;20896;-75
2022/08/18 06:46:14;;;;;;;7.70;7.00;;;25.20;57.80;;;;;;4974781;28;20512;-74
2022/08/18 06:48:48;;;;;;;7.78;7.07;;;25.20;57.80;;;;;;4974711;28;20396;-73
2022/08/18 06:51:19;;;;;;;7.90;7.23;;;25.20;57.80;;;;;;4974769;28;20412;-74
2022/08/18 06:53:58;;;;;;;7.47;6.88;;;25.20;57.80;;;;;;4974630;28;20798;-74
2022/08/18 06:56:33;;;;;;;8.00;7.30;;;25.10;57.80;;;;;;4975893;28;20439;-74
2022/08/18 06:59:29;;;;;;;7.88;7.18;;;25.20;57.80;;;;;;4974591;28;20440;-74
2022/08/18 07:02:17;;;;;;;7.67;7.00;;;25.10;57.80;;;;;;4974485;28;20396;-74
2022/08/18 07:05:06;;;;;;;7.80;7.10;;;25.20;57.90;;;;;;4975548;28;20420;-74
2022/08/18 07:07:40;;;;;;;8.02;7.32;;;25.10;57.80;;;;;;4975696;28;20395;-74
2022/08/18 07:10:31;;;;;;;7.30;6.70;;;25.20;57.90;;;;;;4975663;28;20772;-74
2022/08/18 07:13:20;;;;;;;8.15;7.55;;;25.20;57.90;;;;;;4974361;28;20418;-74
2022/08/18 07:15:47;;;;;;;7.95;7.32;;;25.10;57.80;;;;;;4975432;28;20923;-74
2022/08/18 07:18:14;;;;;;;7.68;7.05;;;25.10;57.80;;;;;;4974379;28;20405;-74
2022/08/18 07:21:00;;;;;;;7.63;7.03;;;25.10;57.80;;;;;;4975381;28;20407;-73
2022/08/18 07:23:28;;;;;;;7.28;6.68;;;25.10;57.80;;;;;;4975421;28;20392;-73
2022/08/18 07:26:07;;;;;;;8.20;7.50;;;25.10;57.80;;;;;;4974055;28;20896;-73
2022/08/18 07:28:44;;;;;;;7.53;6.82;;;25.20;57.90;;;;;;4975525;28;20881;-74
2022/08/18 07:31:31;;;;;;;7.32;6.72;;;25.10;57.80;;;;;;4974091;28;20893;-74
2022/08/18 07:34:02;;;;;;;8.15;7.40;;;25.10;57.90;;;;;;4975206;28;20896;-74
2022/08/18 07:36:34;;;;;;;7.90;7.20;;;25.10;57.90;;;;;;4975178;28;20427;-74
2022/08/18 07:39:26;;;;;;;7.10;6.50;;;25.10;57.90;;;;;;4973752;28;20452;-74
2022/08/18 07:42:04;;;;;;;7.50;6.80;;;25.10;58.00;;;;;;4975096;28;20400;-74
2022/08/18 07:44:52;;;;;;;7.80;7.10;;;25.10;57.90;;;;;;4974440;28;20401;-73
2022/08/18 07:47:24;;;;;;;7.88;7.18;;;25.10;57.90;;;;;;4974973;28;20396;-74
2022/08/18 07:49:57;;;;;;;8.18;7.57;;;25.10;57.90;;;;;;4974904;28;20384;-74
2022/08/18 07:52:31;;;;;;;8.20;7.50;;;25.10;57.90;;;;;;4974978;28;20431;-73
2022/08/18 07:55:18;;;;;;;8.32;7.53;;;25.10;58.00;;;;;;4974793;28;20380;-74
2022/08/18 07:57:57;;;;;;;8.20;7.50;;;25.10;57.90;;;;;;4974701;28;20406;-74
2022/08/18 08:00:29;;;;;;;7.60;7.00;;;25.10;57.90;;;;;;4974811;28;20431;-73
2022/08/18 08:03:10;;;;;;;8.30;7.60;;;25.10;58.00;;;;;;4974789;28;20769;-74
2022/08/18 08:05:54;;;;;;;7.97;7.38;;;25.10;58.00;;;;;;4974533;28;20482;-74
2022/08/18 08:08:36;;;;;;;8.25;7.60;;;25.10;58.00;;;;;;4974573;28;20745;-74
2022/08/18 08:11:01;;;;;;;8.32;7.63;;;25.10;57.90;;;;;;4974498;28;20780;-73
2022/08/18 08:13:42;;;;;;;7.97;7.37;;;25.10;57.90;;;;;;4974509;28;20483;-74
2022/08/18 08:16:48;;;;;;;8.30;7.60;;;25.10;57.90;;;;;;4974404;28;20903;-74
2022/08/18 08:19:19;;;;;;;8.27;7.57;;;25.10;57.90;;;;;;4965891;28;20411;-73
2022/08/18 08:22:04;;;;;;;7.70;7.10;;;25.10;57.90;;;;;;4974260;28;20400;-74
2022/08/18 08:24:55;;;;;;;8.18;7.47;;;25.10;57.90;;;;;;4972868;28;20396;-74
2022/08/18 08:27:57;;;;;;;8.35;7.55;;;25.10;58.00;;;;;;4972976;28;20893;-74
2022/08/18 08:30:24;;;;;;;7.57;6.97;;;25.10;58.00;;;;;;4972998;28;20428;-74
2022/08/18 08:32:55;;;;;;;7.30;6.70;;;25.10;57.90;;;;;;4974048;28;20438;-73
2022/08/18 08:35:44;;;;;;;7.40;6.80;;;25.10;58.00;;;;;;4974085;28;20439;-74
2022/08/18 08:38:36;;;;;;;8.25;7.55;;;25.10;58.00;;;;;;4972281;28;20916;-73
2022/08/18 08:41:19;;;;;;;7.80;7.20;;;25.10;58.00;;;;;;4969992;28;20816;-74
2022/08/18 08:43:54;;;;;;;7.80;7.10;;;25.10;58.00;;;;;;4972603;28;20400;-74
2022/08/18 08:46:23;;;;;;;7.85;7.15;;;25.10;58.00;;;;;;4972604;28;20470;-74
2022/08/18 08:48:59;;;;;;;7.50;6.80;;;25.10;58.00;;;;;;4973832;28;20396;-74
2022/08/18 08:51:45;;;;;;;8.20;7.40;;;25.10;58.00;;;;;;4972617;28;20480;-74
2022/08/18 08:54:22;;;;;;;7.10;6.50;;;25.10;58.00;;;;;;4972562;28;20749;-74
2022/08/18 08:56:51;;;;;;;8.02;7.32;;;25.10;58.00;;;;;;4973690;28;20415;-74
2022/08/18 08:59:20;;;;;;;7.80;7.10;;;25.10;58.10;;;;;;4973732;28;20431;-74
2022/08/18 09:02:13;;;;;;;7.90;7.20;;;25.20;58.10;;;;;;4973668;28;20416;-74
2022/08/18 09:05:17;;;;;;;7.70;7.10;;;25.10;58.10;;;;;;4973477;28;20963;-73
2022/08/18 09:08:04;;;;;;;7.80;7.20;;;25.10;58.10;;;;;;4970485;28;20408;-74
2022/08/18 09:11:00;;;;;;;7.18;6.57;;;25.20;58.00;;;;;;4973566;28;20384;-74
2022/08/18 09:13:50;;;;;;;7.80;7.20;;;25.10;58.00;;;;;;4973491;28;20403;-74
2022/08/18 09:17:03;;;;;;;8.07;7.47;;;25.20;58.10;;;;;;4973431;28;20427;-73
2022/08/18 09:20:07;;;;;;;7.75;7.15;;;25.20;58.10;;;;;;4957098;28;20432;-74
2022/08/18 09:22:36;;;;;;;8.10;7.50;;;25.20;58.10;;;;;;4973333;28;20920;-74
2022/08/18 09:25:09;;;;;;;8.00;7.30;;;25.20;58.10;;;;;;4973197;28;20801;-74
2022/08/18 09:27:44;;;;;;;8.35;7.65;;;25.20;58.10;;;;;;4973262;28;20392;-74
2022/08/18 09:30:47;;;;;;;8.10;7.40;;;25.20;58.10;;;;;;4973216;28;20443;-73
2022/08/18 09:33:20;;;;;;;8.07;7.38;;;25.20;58.10;;;;;;4973187;28;20400;-73
2022/08/18 09:35:59;;;;;;;8.20;7.50;;;25.20;58.10;;;;;;4973048;28;20400;-74
2022/08/18 09:41:31;;;;;;;8.57;7.90;;;25.20;58.10;;;;;;4992753;28;20441;-74
2022/08/18 09:44:13;;;;;;;8.40;7.70;;;25.20;58.10;;;;;;4992550;28;20386;-74
2022/08/18 09:46:41;;;;;;;7.45;6.85;;;25.20;58.10;;;;;;4992355;28;20425;-74
2022/08/18 09:49:22;;;;;;;8.02;7.43;;;25.20;58.10;;;;;;4975082;28;20386;-73
2022/08/18 09:52:25;;;;;;;8.15;7.55;;;25.20;58.00;;;;;;4992342;28;20965;-74
2022/08/18 09:55:26;;;;;;;7.85;7.25;;;25.30;58.10;;;;;;4962850;28;20461;-74
2022/08/18 09:58:17;;;;;;;7.68;7.07;;;25.30;58.10;;;;;;4992242;28;20481;-74
2022/08/18 10:00:43;;;;;;;8.27;7.60;;;25.20;58.00;;;;;;4974991;28;20405;-74
2022/08/18 10:03:18;;;;;;;7.67;7.07;;;25.20;58.00;;;;;;4992091;28;20394;-74
2022/08/18 10:06:05;;;;;;;7.75;7.15;;;25.30;58.00;;;;;;4992242;28;20512;-74
2022/08/18 10:09:00;;;;;;;7.25;6.65;;;25.20;58.00;;;;;;4994039;28;20392;-74
2022/08/18 10:11:45;;;;;;;7.75;7.05;;;25.20;58.00;;;;;;4978639;28;20400;-74
2022/08/18 10:14:24;;;;;;;7.75;7.15;;;25.20;58.00;;;;;;4994949;28;20391;-74
2022/08/18 10:17:01;;;;;;;7.95;7.25;;;25.20;57.90;;;;;;4996011;28;20448;-74
2022/08/18 10:19:59;;;;;;;7.33;6.73;;;25.30;58.00;;;;;;4978566;28;20990;-73
2022/08/18 10:22:47;;;;;;;7.35;6.75;;;25.30;58.00;;;;;;4974699;28;20391;-74
2022/08/18 10:25:38;;;;;;;7.70;7.03;;;25.20;57.90;;;;;;4978394;28;20417;-74
2022/08/18 10:28:07;;;;;;;7.38;6.78;;;25.30;57.90;;;;;;4995934;28;20394;-74
2022/08/18 10:30:32;;;;;;;7.45;6.85;;;25.30;57.90;;;;;;4994496;28;20871;-74
2022/08/18 10:33:00;;;;;;;8.20;7.57;;;25.30;57.90;;;;;;4978320;28;20406;-73
2022/08/18 10:35:28;;;;;;;7.60;7.00;;;25.30;57.90;;;;;;4995755;28;20394;-74
2022/08/18 10:37:55;;;;;;;8.20;7.50;;;25.30;57.90;;;;;;4995509;28;20415;-74
2022/08/18 10:40:22;;;;;;;8.25;7.55;;;25.30;57.90;;;;;;4995743;28;20441;-73
2022/08/18 10:42:57;;;;;;;8.00;7.40;;;25.30;57.80;;;;;;4995553;28;20698;-74
2022/08/18 10:45:29;;;;;;;8.05;7.45;;;25.30;57.80;;;;;;4995527;28;20914;-74
2022/08/18 10:48:20;;;;;;;8.32;7.72;;;25.30;57.80;;;;;;4978072;28;20461;-74
2022/08/18 10:50:58;;;;;;;8.00;7.35;;;25.30;57.80;;;;;;4972582;28;20493;-73
2022/08/18 10:53:35;;;;;;;7.15;6.55;;;25.30;57.80;;;;;;4995432;28;20409;-73
2022/08/18 10:56:24;;;;;;;8.15;7.50;;;25.30;57.70;;;;;;4977830;28;20883;-74
2022/08/18 10:59:18;;;;;;;8.05;7.38;;;25.30;58.10;;;;;;4977728;28;20402;-74
2022/08/18 11:02:01;;;;;;;7.95;7.35;;;25.30;57.70;;;;;;4987556;28;20421;-74
2022/08/18 11:04:43;;;;;;;7.90;7.30;;;25.30;57.70;;;;;;4995166;28;20395;-73
2022/08/18 11:07:18;;;;;;;8.38;7.72;;;25.30;57.70;;;;;;4977664;28;20931;-74
2022/08/18 11:09:48;;;;;;;8.43;7.83;;;25.30;57.80;;;;;;4995131;28;20470;-74
2022/08/18 11:12:14;;;;;;;8.20;7.50;;;25.30;57.80;;;;;;4995128;28;20374;-74
2022/08/18 11:15:19;;;;;;;8.60;7.97;;;25.30;57.80;;;;;;4977571;28;20457;-74
2022/08/18 11:18:07;;;;;;;7.50;6.90;;;25.30;57.80;;;;;;4995042;28;20394;-74
2022/08/18 11:20:33;;;;;;;8.05;7.45;;;25.30;57.80;;;;;;4992429;28;20895;-74
2022/08/18 11:23:01;;;;;;;7.82;7.22;;;25.30;57.80;;;;;;4994863;28;20409;-73
2022/08/18 11:25:35;;;;;;;8.10;7.50;;;25.30;57.80;;;;;;4994687;28;20453;-72
2022/08/18 11:28:01;;;;;;;7.93;7.32;;;25.30;57.80;;;;;;4994739;28;20390;-73
2022/08/18 11:30:42;;;;;;;7.70;7.10;;;25.30;57.90;;;;;;4994705;28;20398;-73
2022/08/18 11:33:14;;;;;;;7.60;7.00;;;25.30;57.80;;;;;;4994783;28;20405;-74
2022/08/18 11:35:59;;;;;;;7.40;6.80;;;25.30;57.80;;;;;;4994633;28;20383;-74
2022/08/18 11:38:27;;;;;;;7.72;7.13;;;25.30;57.80;;;;;;4994426;28;20418;-73
2022/08/18 11:41:19;;;;;;;7.68;7.07;;;25.30;57.90;;;;;;4977205;28;20895;-74
2022/08/18 11:43:47;;;;;;;8.15;7.55;;;25.30;57.90;;;;;;4994433;28;20403;-74
2022/08/18 11:46:29;;;;;;;7.60;7.10;;;25.30;57.90;;;;;;4976833;28;20419;-74
2022/08/18 11:48:55;;;;;;;8.45;7.82;;;25.30;57.90;;;;;;4993149;28;20399;-74
2022/08/18 11:51:27;;;;;;;7.82;7.22;;;25.30;57.80;;;;;;4994332;28;20441;-73
2022/08/18 11:54:01;;;;;;;7.47;6.88;;;25.30;57.90;;;;;;4994286;28;20874;-73
2022/08/18 11:56:28;;;;;;;7.20;6.60;;;25.30;57.80;;;;;;4976830;28;20402;-74
2022/08/18 11:59:04;;;;;;;8.38;7.68;;;25.30;57.90;;;;;;4976756;28;20395;-74
2022/08/18 12:01:39;;;;;;;7.85;7.15;;;25.30;57.90;;;;;;4992853;28;20783;-73
2022/08/18 12:04:14;;;;;;;7.95;7.35;;;25.30;57.90;;;;;;4994068;28;20433;-74
2022/08/18 12:06:50;;;;;;;7.88;7.28;;;25.30;57.90;;;;;;4993865;28;20449;-74
2022/08/18 12:09:34;;;;;;;8.13;7.43;;;25.30;57.80;;;;;;4994077;28;20946;-74
2022/08/18 12:12:22;;;;;;;7.30;6.70;;;25.30;57.80;;;;;;4976465;28;20911;-74
2022/08/18 12:14:55;;;;;;;8.10;7.50;;;25.30;57.90;;;;;;4993898;28;20406;-74
2022/08/18 12:17:21;;;;;;;8.30;7.63;;;25.30;57.90;;;;;;4993909;28;20481;-74
2022/08/18 12:19:47;;;;;;;7.47;6.88;;;25.30;57.90;;;;;;4993727;28;20907;-74
2022/08/18 12:22:19;;;;;;;8.00;7.40;;;25.30;57.80;;;;;;4992554;28;20489;-73
2022/08/18 12:24:46;;;;;;;8.20;7.50;;;25.40;57.90;;;;;;4993622;28;20500;-74
2022/08/18 12:27:17;;;;;;;7.80;7.20;;;25.40;57.80;;;;;;4993658;28;20921;-73
2022/08/18 12:29:43;;;;;;;7.85;7.25;;;25.40;57.90;;;;;;4993574;28;20394;-74
2022/08/18 12:32:09;;;;;;;8.23;7.63;;;25.30;57.80;;;;;;4993245;28;20395;-74
2022/08/18 12:34:35;;;;;;;7.95;7.25;;;25.30;57.80;;;;;;4975924;28;20751;-73
2022/08/18 12:37:01;;;;;;;7.95;7.32;;;25.40;57.90;;;;;;4993261;28;20402;-73
2022/08/18 12:39:28;;;;;;;8.40;7.70;;;25.30;57.80;;;;;;4993389;28;20476;-73
2022/08/18 12:41:55;;;;;;;7.80;7.20;;;25.40;57.80;;;;;;4993380;28;20390;-74
2022/08/18 12:44:21;;;;;;;8.05;7.38;;;25.40;57.90;;;;;;4993344;28;20421;-73
2022/08/18 12:46:47;;;;;;;7.53;6.93;;;25.30;57.80;;;;;;4975728;28;20819;-74
2022/08/18 12:49:20;;;;;;;7.80;7.20;;;25.30;57.80;;;;;;4993300;28;20816;-74
2022/08/18 12:51:47;;;;;;;8.00;7.40;;;25.30;57.80;;;;;;4993146;28;20406;-73
2022/08/18 12:54:13;;;;;;;7.80;7.20;;;25.30;57.80;;;;;;4993244;28;20398;-74
2022/08/18 12:56:40;;;;;;;7.40;6.80;;;25.30;57.80;;;;;;4993068;28;20405;-73
2022/08/18 12:59:08;;;;;;;7.43;6.82;;;25.30;57.80;;;;;;4993137;28;20398;-74
2022/08/18 13:01:36;;;;;;;7.50;6.90;;;25.30;57.80;;;;;;4993034;28;20879;-74
2022/08/18 13:04:02;;;;;;;7.45;6.80;;;25.30;57.80;;;;;;4993023;28;20473;-74
2022/08/18 13:06:30;;;;;;;7.90;7.20;;;25.30;58.40;;;;;;4992897;28;20895;-73
2022/08/18 13:08:55;;;;;;;7.78;7.18;;;25.30;57.90;;;;;;4992932;28;20387;-74
2022/08/18 13:11:22;;;;;;;8.23;7.63;;;25.30;57.90;;;;;;4992929;28;20461;-73
2022/08/18 13:13:50;;;;;;;8.17;7.47;;;25.30;57.90;;;;;;4975305;28;20439;-74
2022/08/18 13:16:17;;;;;;;7.80;7.20;;;25.30;57.90;;;;;;4991655;28;20390;-73
2022/08/18 13:18:42;;;;;;;7.63;7.03;;;25.30;57.90;;;;;;4992801;28;20403;-74
2022/08/18 13:21:10;;;;;;;7.83;7.23;;;25.30;57.90;;;;;;4975321;28;20405;-74
2022/08/18 13:23:36;;;;;;;8.38;7.68;;;25.30;58.00;;;;;;4975269;28;20919;-73
2022/08/18 13:26:04;;;;;;;7.55;6.95;;;25.30;57.90;;;;;;4992605;28;20430;-74
2022/08/18 13:28:31;;;;;;;8.02;7.38;;;25.30;57.90;;;;;;4992714;28;20398;-73
2022/08/18 13:30:57;;;;;;;7.25;6.65;;;25.30;58.00;;;;;;4975244;28;20395;-74